Latest Weather Observations for Canberra

IDN60901

Issued at 2:41 am EST Monday 6 July 2020 (issued every 10 minutes, with the page automatically refreshed every 10 minutes)

About weather observations | Map of Canberra area stations | Latest observations for Canberra area | Other Formats
Station Details ID: 070351 Name: CANBERRA AIRPORT Lat: -35.31 Lon: 149.20 Height: 577.05 m
Data from the previous 72 hours. | See also: Recent months at Canberra
Date/Time
EST
Temp
°C
App
Temp
°C
Dew
Point
°C
Rel
Hum
%
Delta-T
°C
Wind Press
QNH
hPa
Press
MSL
hPa
Rain since
9am
mm
Dir  Spd
km/h
Gust
km/h
Spd
kts
Gust
kts
06/02:32am 3.9 2.6 3.9 100 0.0 CALM 0 0 0 0 1026.6 1027.9 0.0
06/02:30am 3.9 2.6 3.9 100 0.0 CALM 0 6 0 3 1026.5 1027.8 0.0
06/02:00am 3.8 1.1 3.7 99 0.0 SE 7 7 4 4 1026.7 1028.0 0.0
06/01:48am 3.7 1.0 3.6 99 0.0 SE 7 9 4 5 1026.8 1028.2 0.0
06/01:38am 3.6 1.8 3.5 99 0.0 SSE 2 7 1 4 1026.8 1028.2 0.0
06/01:37am 3.6 1.8 3.5 99 0.0 SSE 2 7 1 4 1026.8 1028.2 0.0
06/01:30am 3.6 2.2 3.5 99 0.0 CALM 0 0 0 0 1026.8 1028.2 0.0
06/01:03am 3.1 1.6 3.0 99 0.0 CALM 0 0 0 0 1026.7 1028.0 0.0
06/01:00am 3.1 1.6 3.0 99 0.0 CALM 0 0 0 0 1026.8 1028.2 0.0
06/12:47am 3.2 1.7 3.1 99 0.0 CALM 0 0 0 0 1026.8 1028.2 0.0
06/12:30am 2.8 1.2 2.7 99 0.0 CALM 0 0 0 0 1026.7 1028.0 0.0
06/12:11am 2.5 0.9 2.4 99 0.0 CALM 0 0 0 0 1026.8 1028.2 0.0
06/12:00am 2.2 0.5 2.1 99 0.0 CALM 0 0 0 0 1026.9 1028.3 0.0
 
Date/Time
EST
Temp
°C
App
Temp
°C
Dew
Point
°C
Rel
Hum
%
Delta-T
°C
Wind Press
QNH
hPa
Press
MSL
hPa
Rain since
9am
mm
Dir  Spd
km/h
Gust
km/h
Spd
kts
Gust
kts
05/11:58pm 2.2 0.5 2.1 99 0.0 CALM 0 0 0 0 1026.8 1028.2 0.0
05/11:31pm 1.6 -0.2 1.5 99 0.0 CALM 0 0 0 0 1026.7 1028.0 0.0
05/11:30pm 1.6 -0.2 1.5 99 0.0 CALM 0 0 0 0 1026.7 1028.0 0.0
05/11:24pm 1.5 -0.3 1.4 99 0.0 CALM 0 2 0 1 1026.7 1028.0 0.0
05/11:19pm 1.6 -0.2 1.5 99 0.0 CALM 0 2 0 1 1026.6 1027.9 0.0
05/11:04pm 1.4 -1.1 1.3 99 0.0 SSE 4 9 2 5 1026.5 1027.8 0.0
05/11:01pm 1.3 -1.3 1.2 99 0.0 SSE 4 9 2 5 1026.5 1027.8 0.0
05/11:00pm 1.2 -1.0 1.1 99 0.0 SSE 2 9 1 5 1026.5 1027.8 0.0
05/10:30pm 2.2 0.5 2.1 99 0.0 CALM 0 0 0 0 1026.2 1027.5 0.0
05/10:00pm 1.6 -0.9 1.5 99 0.0 SSE 4 7 2 4 1026.0 1027.3 0.0
05/09:30pm 3.1 1.6 3.0 99 0.0 CALM 0 0 0 0 1025.8 1027.1 0.0
05/09:00pm 3.4 2.0 3.3 99 0.0 CALM 0 0 0 0 1025.4 1026.7 0.0
05/08:30pm 3.9 2.5 3.5 97 0.2 CALM 0 0 0 0 1025.0 1026.3 0.0
05/08:00pm 4.1 1.8 2.6 90 0.6 NE 4 9 2 5 1024.7 1026.0 0.0
05/07:30pm 4.8 2.1 3.5 91 0.6 ENE 7 11 4 6 1024.3 1025.6 0.0
05/07:00pm 6.0 2.9 3.7 85 1.0 N 9 11 5 6 1024.0 1025.3 0.0
05/06:30pm 7.1 3.4 4.4 83 1.2 NNE 13 13 7 7 1023.7 1024.9 0.0
05/06:00pm 7.8 4.5 4.7 81 1.4 NNE 11 15 6 8 1023.3 1024.6 0.0
05/05:30pm 8.6 5.3 4.6 76 1.8 NNE 11 11 6 6 1022.8 1024.1 0.0
05/05:00pm 9.1 5.4 4.5 73 2.1 NNW 13 17 7 9 1022.4 1023.7 0.0
05/04:30pm 10.4 6.0 4.8 68 2.6 NNW 17 22 9 12 1022.2 1023.4 0.0
05/04:00pm 11.5 7.1 4.9 64 3.1 NW 17 24 9 13 1022.1 1023.3 0.0
05/03:30pm 12.1 7.7 4.8 61 3.5 NNW 17 22 9 12 1022.1 1023.3 0.0
05/03:00pm 12.3 7.5 4.8 60 3.5 NNW 19 26 10 14 1022.0 1023.2 0.0
05/02:30pm 13.0 9.3 4.2 55 4.1 NW 13 20 7 11 1021.7 1022.9 0.0
05/02:00pm 13.3 9.6 4.2 54 4.3 NNW 13 19 7 10 1021.5 1022.8 0.0
05/01:30pm 12.9 9.1 1.6 46 5.0 NNW 11 15 6 8 1021.5 1022.8 0.0
05/01:00pm 12.6 9.1 1.3 46 4.9 NW 9 13 5 7 1022.0 1023.2 0.0
05/12:30pm 11.9 8.6 2.4 52 4.3 WNW 9 15 5 8 1022.2 1023.4 0.0
05/12:00pm 11.2 7.8 1.7 52 4.1 WNW 9 15 5 8 1022.6 1023.9 0.0
05/11:30am 10.9 7.3 2.7 57 3.7 W 11 15 6 8 1023.0 1024.3 0.0
05/11:00am 10.5 7.3 2.8 59 3.4 W 9 13 5 7 1023.3 1024.6 0.0
05/10:30am 9.1 7.5 4.3 72 2.2 W 2 7 1 4 1023.3 1024.6 0.0
05/10:00am 7.5 5.8 4.1 79 1.5 SW 2 7 1 4 1023.3 1024.6 0.0
05/09:30am 5.6 3.0 4.2 91 0.6 SW 7 7 4 4 1023.4 1024.7 0.0
05/09:00am 3.7 1.5 3.6 99 0.0 SSE 4 7 2 4 1023.3 1024.6 0.0
05/08:30am 2.0 0.3 1.9 99 0.0 CALM 0 4 0 2 1022.8 1024.1 0.0
05/08:00am 0.2 -2.9 0.1 99 0.0 SSE 6 7 3 4 1022.5 1023.8 0.0
05/07:30am 0.2 -2.5 0.1 99 0.0 SE 4 6 2 3 1022.0 1023.2 0.0
05/07:00am -0.2 -3.6 -0.3 99 0.0 SE 7 9 4 5 1021.5 1022.8 0.0
05/06:30am 0.2 -3.5 0.1 99 0.0 SE 9 11 5 6 1021.3 1022.6 0.0
05/06:00am 0.9 -3.4 0.8 99 0.0 SE 13 15 7 8 1020.9 1022.1 0.0
05/05:30am 1.9 -1.9 1.5 97 0.2 ESE 11 13 6 7 1020.7 1021.9 0.0
05/05:00am 3.4 0.6 3.0 97 0.2 ENE 7 9 4 5 1020.5 1021.7 0.0
05/04:30am 4.8 1.6 3.1 89 0.7 WNW 9 13 5 7 1020.5 1021.7 0.0
05/04:00am 4.7 1.9 3.0 89 0.7 WNW 7 13 4 7 1020.7 1021.9 0.0
05/03:30am 5.5 0.5 3.7 88 0.8 NW 19 22 10 12 1020.7 1021.9 0.0
05/03:00am 4.9 0.0 4.0 94 0.4 NW 19 26 10 14 1020.8 1022.0 0.0
05/02:30am 5.3 0.1 3.8 90 0.7 NW 20 26 11 14 1020.9 1022.1 0.0
05/02:00am 5.0 0.7 3.5 90 0.6 NNW 15 20 8 11 1021.2 1022.5 0.0
05/01:30am 5.2 -0.8 3.5 89 0.7 NNW 24 30 13 16 1021.2 1022.5 0.0
05/01:00am 5.1 0.4 3.0 86 0.9 NW 17 24 9 13 1021.2 1022.5 0.0
05/12:30am 5.0 0.2 2.7 85 1.0 NW 17 24 9 13 1021.2 1022.5 0.0
05/12:00am 5.4 0.1 2.8 83 1.1 NW 20 26 11 14 1021.3 1022.6 0.0
 
Date/Time
EST
Temp
°C
App
Temp
°C
Dew
Point
°C
Rel
Hum
%
Delta-T
°C
Wind Press
QNH
hPa
Press
MSL
hPa
Rain since
9am
mm
Dir  Spd
km/h
Gust
km/h
Spd
kts
Gust
kts
04/11:30pm 5.2 0.3 2.2 81 1.3 NW 17 26 9 14 1021.5 1022.8 0.0
04/11:00pm 5.2 0.3 2.2 81 1.3 NW 17 22 9 12 1021.4 1022.7 0.0
04/10:30pm 5.6 0.4 2.3 79 1.4 NW 19 26 10 14 1021.5 1022.8 0.0
04/10:00pm 6.5 0.3 2.0 73 1.9 WNW 24 33 13 18 1021.5 1022.8 0.0
04/09:30pm 6.7 0.1 2.0 72 2.0 WNW 26 35 14 19 1021.7 1022.9 0.0
04/09:00pm 6.8 0.2 1.9 71 2.1 W 26 35 14 19 1021.7 1022.9 0.0
04/08:30pm 6.8 -0.6 2.1 72 2.0 W 30 35 16 19 1021.3 1022.6 0.0
04/08:00pm 6.9 -0.5 2.0 71 2.1 W 30 37 16 20 1021.1 1022.4 0.0
04/07:30pm 6.9 -0.1 2.0 71 2.1 W 28 41 15 22 1020.8 1022.0 0.0
04/07:00pm 7.1 0.9 2.2 71 2.1 WNW 24 33 13 18 1020.8 1022.0 0.0
04/06:30pm 7.4 0.4 2.1 69 2.3 WNW 28 37 15 20 1020.2 1021.4 0.0
04/06:00pm 7.5 0.5 2.0 68 2.3 WNW 28 37 15 20 1020.1 1021.3 0.0
04/05:30pm 8.0 0.5 1.4 63 2.8 WNW 30 41 16 22 1019.7 1021.0 0.0
04/05:00pm 8.6 3.0 1.5 61 3.0 WNW 20 28 11 15 1019.4 1020.6 0.0
04/04:30pm 9.6 3.3 1.5 57 3.5 WNW 24 33 13 18 1019.1 1020.3 0.0
04/04:00pm 10.5 4.9 1.3 53 4.0 WNW 20 28 11 15 1019.2 1020.4 0.0
04/03:30pm 10.8 5.6 0.2 48 4.5 NW 17 26 9 14 1019.5 1020.8 0.0
04/03:00pm 10.8 5.6 0.0 47 4.5 NW 17 24 9 13 1019.3 1020.5 0.0
04/02:30pm 11.1 6.8 0.8 49 4.4 WNW 13 17 7 9 1019.4 1020.6 0.0
04/02:00pm 10.5 6.1 0.5 50 4.2 WNW 13 19 7 10 1019.6 1020.9 0.0
04/01:30pm 9.8 5.8 0.4 52 3.9 WNW 11 17 6 9 1019.7 1021.0 0.0
04/01:00pm 9.0 4.6 0.5 55 3.5 W 13 19 7 10 1020.1 1021.3 0.0
04/12:30pm 8.7 5.1 0.4 56 3.4 NNW 9 13 5 7 1020.5 1021.7 0.0
04/12:00pm 8.1 4.5 0.3 58 3.2 WNW 9 13 5 7 1020.9 1022.1 0.0
04/11:30am 8.3 3.9 0.3 57 3.3 NW 13 20 7 11 1021.1 1022.4 0.0
04/11:00am 7.6 3.2 0.6 61 2.9 NW 13 19 7 10 1021.7 1022.9 0.0
04/10:30am 6.8 2.9 1.3 68 2.3 WNW 11 15 6 8 1022.0 1023.2 0.0
04/10:00am 5.8 1.4 0.4 68 2.2 W 13 17 7 9 1021.9 1023.1 0.0
04/09:30am 5.2 0.5 1.1 75 1.7 WNW 15 19 8 10 1021.8 1023.0 0.0
04/09:00am 4.3 -0.5 0.3 75 1.6 WNW 15 19 8 10 1021.5 1022.8 0.6
04/08:30am 3.8 0.7 0.1 77 1.4 N 6 7 3 4 1021.1 1022.4 0.6
04/08:00am 2.0 -1.5 -1.1 80 1.1 WSW 7 11 4 6 1020.6 1021.8 0.6
04/07:30am 1.8 -2.5 -1.3 80 1.1 SSW 11 15 6 8 1020.4 1021.6 0.6
04/07:00am 2.3 -2.3 -1.0 79 1.2 S 13 15 7 8 1020.3 1021.5 0.6
04/06:30am 3.0 -2.3 -0.8 76 1.4 S 17 20 9 11 1019.7 1021.0 0.6
04/06:00am 2.6 -2.3 -0.7 79 1.2 SSW 15 22 8 12 1019.7 1021.0 0.6
04/05:30am 2.2 -2.0 -1.1 79 1.2 SSW 11 17 6 9 1019.4 1020.6 0.6
04/05:00am 2.5 -1.7 -0.6 80 1.2 SSE 11 15 6 8 1018.8 1020.0 0.6
04/04:30am 2.2 -2.4 -0.7 81 1.1 S 13 19 7 10 1018.6 1019.8 0.6
04/04:00am 2.6 -1.9 0.0 83 1.0 SSE 13 17 7 9 1018.4 1019.6 0.6
04/03:30am 4.0 -2.0 0.9 80 1.2 S 22 32 12 17 1018.1 1019.3 0.6
04/03:00am 4.4 -0.9 2.1 85 1.0 SSE 19 26 10 14 1017.8 1019.0 0.6
04/02:30am 3.5 -1.4 2.3 92 0.5 SSW 17 32 9 17 1017.6 1018.8 0.6
04/02:11am 4.2 0.3 3.6 96 0.3 NW 13 17 7 9 1017.0 1018.2 0.0
04/02:00am 4.0 -0.3 3.0 93 0.4 NNW 15 19 8 10 1016.9 1018.1 0.0
04/01:40am 4.8 0.9 3.6 92 0.5 NW 13 17 7 9 1017.2 1018.4 0.0
04/01:30am 4.7 0.8 3.5 92 0.5 NW 13 19 7 10 1017.1 1018.3 0.0
04/01:00am 4.7 -0.9 3.4 91 0.6 N 22 30 12 16 1016.6 1017.8 0.0
04/12:52am 4.7 -1.7 3.4 91 0.6 NNW 26 35 14 19 1016.7 1017.9 0.0
04/12:30am 5.1 -1.6 3.4 89 0.7 NNW 28 37 15 20 1017.1 1018.3 0.0
04/12:00am 5.4 -1.3 3.9 90 0.7 NW 28 43 15 23 1017.3 1018.5 0.0
 
Date/Time
EST
Temp
°C
App
Temp
°C
Dew
Point
°C
Rel
Hum
%
Delta-T
°C
Wind Press
QNH
hPa
Press
MSL
hPa
Rain since
9am
mm
Dir  Spd
km/h
Gust
km/h
Spd
kts
Gust
kts
03/11:30pm 5.9 -1.1 4.1 88 0.8 NNW 30 39 16 21 1017.5 1018.7 0.0
03/11:00pm 6.0 -0.7 3.8 86 1.0 NNW 28 37 15 20 1017.4 1018.6 0.0
03/10:40pm 6.3 0.3 3.1 80 1.4 NNW 24 33 13 18 1017.4 1018.6 0.0
03/10:30pm 6.4 0.3 3.0 79 1.5 NNW 24 35 13 19 1017.5 1018.7 0.0
03/10:00pm 6.5 0.5 3.1 79 1.5 NNW 24 37 13 20 1017.7 1018.9 0.0
03/09:30pm 6.5 0.9 3.3 80 1.4 NNW 22 32 12 17 1018.2 1019.4 0.0
03/09:00pm 6.5 0.5 3.1 79 1.5 NNW 24 32 13 17 1018.4 1019.6 0.0
03/08:30pm 6.5 0.5 3.1 79 1.5 NNW 24 30 13 16 1018.9 1020.1 0.0
03/08:00pm 6.4 -1.2 2.9 78 1.5 NW 32 37 17 20 1019.1 1020.3 0.0
03/07:30pm 6.6 -0.7 2.3 74 1.8 NW 30 35 16 19 1019.1 1020.3 0.0
03/07:00pm 6.3 0.0 1.8 73 1.9 NW 24 33 13 18 1019.1 1020.3 0.0
03/06:30pm 6.3 0.0 1.8 73 1.9 NNW 24 30 13 16 1019.2 1020.4 0.0
03/06:00pm 6.3 -0.1 1.2 70 2.1 NW 24 28 13 15 1019.2 1020.4 0.0
03/05:30pm 6.6 0.6 1.1 68 2.3 NNW 22 32 12 17 1019.2 1020.4 0.0
03/05:00pm 7.1 1.7 1.0 65 2.5 NNW 19 24 10 13 1019.1 1020.3 0.0
03/04:30pm 8.6 2.5 0.3 56 3.4 NW 22 30 12 16 1018.8 1020.0 0.0
03/04:00pm 9.4 3.4 0.8 55 3.6 NW 22 33 12 18 1019.0 1020.2 0.0
03/03:30pm 9.6 1.6 0.5 53 3.8 WNW 32 39 17 21 1018.8 1020.0 0.0
03/03:00pm 10.6 4.3 1.7 54 3.9 WNW 24 35 13 19 1018.5 1019.7 0.0
03/02:30pm 11.2 4.5 1.2 50 4.3 WNW 26 33 14 18 1018.4 1019.6 0.0
03/02:00pm 11.2 4.7 0.6 48 4.5 WNW 24 32 13 17 1018.3 1019.5 0.0
03/01:30pm 10.8 4.3 0.2 48 4.5 NW 24 33 13 18 1018.4 1019.6 0.0
03/01:00pm 11.3 4.9 1.0 49 4.4 WNW 24 37 13 20 1018.6 1019.8 0.0
03/12:30pm 10.5 3.4 1.1 52 4.0 WNW 28 35 15 19 1018.7 1019.9 0.0
03/12:00pm 10.3 2.5 2.7 59 3.4 NNW 33 41 18 22 1018.6 1019.8 0.0
03/11:30am 9.9 3.9 3.2 63 3.0 NW 24 35 13 19 1019.2 1020.4 0.0
03/11:00am 9.7 3.6 3.0 63 3.0 N 24 32 13 17 1019.5 1020.8 0.0
03/10:30am 9.1 1.9 3.1 66 2.7 NW 30 37 16 20 1019.1 1020.3 0.0
03/10:00am 8.3 3.6 3.0 69 2.3 NNW 17 26 9 14 1019.4 1020.6 0.0
03/09:30am 8.0 2.7 3.1 71 2.2 NW 20 28 11 15 1019.4 1020.6 0.0
03/09:00am 7.1 2.4 3.3 77 1.7 NNW 17 20 9 11 1019.2 1020.4 0.0
03/08:30am 6.1 2.2 3.3 82 1.2 N 13 17 7 9 1019.0 1020.2 0.0
03/08:00am 5.0 2.7 2.5 84 1.0 N 4 9 2 5 1019.0 1020.2 0.0
03/07:30am 4.0 0.7 2.2 88 0.7 N 9 13 5 7 1018.8 1020.0 0.0
03/07:00am 4.4 1.5 2.4 87 0.8 NNE 7 11 4 6 1018.7 1019.9 0.0
03/06:30am 4.1 0.0 2.5 89 0.7 N 13 15 7 8 1018.5 1019.7 0.0
03/06:00am 3.7 0.8 2.7 93 0.4 N 7 11 4 6 1018.4 1019.6 0.0
03/05:30am 3.4 0.1 2.4 93 0.4 N 9 11 5 6 1018.2 1019.4 0.0
03/05:00am 3.0 0.0 1.8 92 0.5 NNE 7 9 4 5 1018.2 1019.4 0.0
03/04:30am 3.4 -0.3 2.2 92 0.5 NNE 11 13 6 7 1018.4 1019.6 0.0
03/04:00am 3.3 -0.5 1.8 90 0.6 N 11 13 6 7 1018.4 1019.6 0.0
03/03:30am 3.8 -0.7 2.2 89 0.7 N 15 17 8 9 1018.3 1019.5 0.0
03/03:00am 4.4 -0.5 2.3 86 0.9 N 17 19 9 10 1018.4 1019.6 0.0

Latest Capital City Observations: Canberra | Sydney | Melbourne | Brisbane | Adelaide | Perth | Hobart | Darwin

Other formats

Comma delimited format used in spreadsheet applications
http://www.bom.gov.au/fwo/IDN60903/IDN60903.94926.axf

JavaScript Object Notation format (JSON) in row-major order
http://www.bom.gov.au/fwo/IDN60903/IDN60903.94926.json

Data quality

Most of these data are generated automatically and are frequently updated. Quality checks on data are not normally performed. It is possible for incorrect values to appear. Refer to information at About Latest Weather Observations and please check the disclaimer before using these data.